Time,TemperatureF,DewpointF,PressureIn,WindDirection,WindDirectionDegrees,WindSpeedMPH,WindSpeedGustMPH,Humidity,HourlyPrecipIn,Conditions,Clouds,dailyrainin,SoftwareType,DateUTC
2013-03-21 01:01:00,38.5,25.0,29.77,NNW,347,5.0,7.0,58,0.00,,,0.00,weatherlink.com 1.10,2013-03-21 05:01:00,
2013-03-21 01:46:00,36.8,27.0,29.77,NW,320,4.0,10.0,67,0.00,,,0.00,weatherlink.com 1.10,2013-03-21 05:46:00,
2013-03-21 02:01:00,36.4,26.0,29.78,NNW,334,6.0,9.0,65,0.00,,,0.00,weatherlink.com 1.10,2013-03-21 06:01:00,
2013-03-21 02:16:00,36.1,25.0,29.78,NW,317,7.0,13.0,65,0.00,,,0.00,weatherlink.com 1.10,2013-03-21 06:16:00,
2013-03-21 02:31:00,35.9,26.0,29.78,NW,317,6.0,9.0,67,0.00,,,0.00,weatherlink.com 1.10,2013-03-21 06:31:00,
2013-03-21 03:01:00,35.5,25.0,29.77,NNW,329,4.0,10.0,67,0.00,,,0.00,weatherlink.com 1.10,2013-03-21 07:01:00,
2013-03-21 03:16:00,35.3,26.0,29.77,NW,321,6.0,10.0,68,0.00,,,0.00,weatherlink.com 1.10,2013-03-21 07:16:00,
2013-03-21 03:46:00,35.0,25.0,29.77,NNW,331,6.0,12.0,66,0.00,,,0.00,weatherlink.com 1.10,2013-03-21 07:46:00,
2013-03-21 04:01:00,34.7,24.0,29.77,NW,317,5.0,10.0,66,0.00,,,0.00,weatherlink.com 1.10,2013-03-21 08:01:00,
2013-03-21 04:16:00,34.4,24.0,29.77,NW,317,7.0,11.0,66,0.00,,,0.00,weatherlink.com 1.10,2013-03-21 08:16:00,
2013-03-21 04:31:00,34.2,23.0,29.77,NW,311,2.0,9.0,64,0.00,,,0.00,weatherlink.com 1.10,2013-03-21 08:31:00,
2013-03-21 04:46:00,33.5,26.0,29.77,North,355,5.0,12.0,73,0.00,,,0.00,weatherlink.com 1.10,2013-03-21 08:46:00,
2013-03-21 05:01:00,32.1,26.0,29.77,NNE,23,5.0,10.0,78,0.00,,,0.00,weatherlink.com 1.10,2013-03-21 09:01:00,
2013-03-21 05:16:00,31.6,25.0,29.77,NNE,22,3.0,8.0,78,0.00,,,0.00,weatherlink.com 1.10,2013-03-21 09:16:00,
2013-03-21 05:31:00,31.2,25.0,29.77,North,10,2.0,6.0,78,0.00,,,0.00,weatherlink.com 1.10,2013-03-21 09:31:00,
2013-03-21 05:46:00,31.0,24.0,29.77,NNE,30,2.0,6.0,76,0.00,,,0.00,weatherlink.com 1.10,2013-03-21 09:46:00,
2013-03-21 06:02:00,30.6,24.0,29.78,NNE,30,1.0,1.0,76,0.00,,,0.00,weatherlink.com 1.10,2013-03-21 10:02:00,
2013-03-21 06:17:00,30.5,24.0,29.79,NNE,30,0.0,2.0,76,0.00,,,0.00,weatherlink.com 1.10,2013-03-21 10:17:00,
2013-03-21 06:32:00,30.3,23.0,29.79,NNE,30,0.0,1.0,75,0.00,,,0.00,weatherlink.com 1.10,2013-03-21 10:32:00,
2013-03-21 06:47:00,30.5,21.0,29.79,NW,312,0.0,3.0,69,0.00,,,0.00,weatherlink.com 1.10,2013-03-21 10:47:00,
2013-03-21 07:02:00,30.2,21.0,29.80,NW,312,0.0,1.0,68,0.00,,,0.00,weatherlink.com 1.10,2013-03-21 11:02:00,
2013-03-21 07:17:00,29.6,19.0,29.80,NW,311,1.0,5.0,66,0.00,,,0.00,weatherlink.com 1.10,2013-03-21 11:17:00,
2013-03-21 07:32:00,29.2,20.0,29.80,NW,311,1.0,2.0,68,0.00,,,0.00,weatherlink.com 1.10,2013-03-21 11:32:00,
2013-03-21 07:47:00,29.0,20.0,29.80,NW,311,0.0,3.0,69,0.00,,,0.00,weatherlink.com 1.10,2013-03-21 11:47:00,
2013-03-21 08:02:00,29.3,18.0,29.80,WNW,290,1.0,6.0,64,0.00,,,0.00,weatherlink.com 1.10,2013-03-21 12:02:00,
2013-03-21 08:17:00,30.5,18.0,29.80,NW,315,2.0,6.0,59,0.00,,,0.00,weatherlink.com 1.10,2013-03-21 12:17:00,
2013-03-21 08:32:00,31.5,18.0,29.80,NW,304,7.0,15.0,58,0.00,,,0.00,weatherlink.com 1.10,2013-03-21 12:32:00,
2013-03-21 08:47:00,31.0,17.0,29.80,WNW,284,6.0,15.0,56,0.00,,,0.00,weatherlink.com 1.10,2013-03-21 12:47:00,
2013-03-21 09:02:00,30.8,16.0,29.80,West,273,6.0,15.0,54,0.00,,,0.00,weatherlink.com 1.10,2013-03-21 13:02:00,
2013-03-21 09:17:00,31.2,17.0,29.80,NW,309,5.0,9.0,57,0.00,,,0.00,weatherlink.com 1.10,2013-03-21 13:17:00,
2013-03-21 09:32:00,32.0,19.0,29.80,NNW,344,5.0,10.0,60,0.00,,,0.00,weatherlink.com 1.10,2013-03-21 13:32:00,
2013-03-21 09:47:00,32.0,17.0,29.80,WNW,296,9.0,10.0,55,0.00,,,0.00,weatherlink.com 1.10,2013-03-21 13:47:00,
2013-03-21 10:02:00,31.3,14.0,29.80,SW,232,5.0,9.0,50,0.00,,,0.00,weatherlink.com 1.10,2013-03-21 14:02:00,
2013-03-21 10:17:00,33.6,17.0,29.80,WSW,239,9.0,13.0,50,0.00,,,0.00,weatherlink.com 1.10,2013-03-21 14:17:00,
2013-03-21 10:32:00,32.6,15.0,29.80,West,259,13.0,18.0,49,0.00,,,0.00,weatherlink.com 1.10,2013-03-21 14:32:00,
2013-03-21 10:47:00,33.9,15.0,29.80,West,267,6.0,18.0,47,0.00,,,0.00,weatherlink.com 1.10,2013-03-21 14:47:00,
2013-03-21 11:17:00,34.8,16.0,29.80,WSW,241,13.0,19.0,46,0.00,,,0.00,weatherlink.com 1.10,2013-03-21 15:17:00,
2013-03-21 11:32:00,34.2,15.0,29.80,WSW,254,14.0,20.0,45,0.00,,,0.00,weatherlink.com 1.10,2013-03-21 15:32:00,
2013-03-21 11:47:00,33.9,13.0,29.79,WNW,294,13.0,19.0,42,0.00,,,0.00,weatherlink.com 1.10,2013-03-21 15:47:00,
2013-03-21 12:02:00,35.0,14.0,29.79,SW,214,9.0,17.0,43,0.00,,,0.00,weatherlink.com 1.10,2013-03-21 16:02:00,
2013-03-21 12:18:00,34.2,14.0,29.78,West,273,11.0,21.0,43,0.00,,,0.00,weatherlink.com 1.10,2013-03-21 16:18:00,
2013-03-21 12:32:00,34.8,13.0,29.79,WSW,244,14.0,19.0,41,0.00,,,0.00,weatherlink.com 1.10,2013-03-21 16:32:00,
2013-03-21 12:48:00,34.7,12.0,29.79,WSW,257,18.0,18.0,39,0.00,,,0.00,weatherlink.com 1.10,2013-03-21 16:48:00,
2013-03-21 13:03:00,35.3,14.0,29.78,West,265,10.0,19.0,41,0.00,,,0.00,weatherlink.com 1.10,2013-03-21 17:03:00,
2013-03-21 13:18:00,34.7,10.0,29.78,West,260,9.0,21.0,36,0.00,,,0.00,weatherlink.com 1.10,2013-03-21 17:18:00,
2013-03-21 13:33:00,34.5,11.0,29.78,WSW,253,14.0,19.0,38,0.00,,,0.00,weatherlink.com 1.10,2013-03-21 17:33:00,
2013-03-21 13:48:00,34.5,11.0,29.79,WSW,250,12.0,26.0,38,0.00,,,0.00,weatherlink.com 1.10,2013-03-21 17:48:00,
2013-03-21 14:03:00,34.7,11.0,29.79,West,271,10.0,22.0,37,0.00,,,0.00,weatherlink.com 1.10,2013-03-21 18:03:00,
2013-03-21 14:18:00,34.8,11.0,29.78,West,275,17.0,23.0,37,0.00,,,0.00,weatherlink.com 1.10,2013-03-21 18:18:00,
2013-03-21 14:33:00,33.9,11.0,29.78,WSW,240,16.0,25.0,39,0.00,,,0.00,weatherlink.com 1.10,2013-03-21 18:33:00,
2013-03-21 14:48:00,33.9,11.0,29.78,West,272,18.0,22.0,38,0.00,,,0.00,weatherlink.com 1.10,2013-03-21 18:48:00,
2013-03-21 15:03:00,34.8,11.0,29.78,WSW,252,7.0,18.0,37,0.00,,,0.00,weatherlink.com 1.10,2013-03-21 19:03:00,
2013-03-21 15:18:00,35.9,12.0,29.78,NNW,337,9.0,20.0,37,0.00,,,0.00,weatherlink.com 1.10,2013-03-21 19:18:00,
2013-03-21 15:33:00,35.0,10.0,29.79,NW,320,9.0,20.0,36,0.00,,,0.00,weatherlink.com 1.10,2013-03-21 19:33:00,
2013-03-21 15:48:00,34.4,10.0,29.79,West,265,13.0,27.0,36,0.00,,,0.00,weatherlink.com 1.10,2013-03-21 19:48:00,
2013-03-21 16:03:00,35.2,11.0,29.79,SW,234,13.0,25.0,37,0.00,,,0.00,weatherlink.com 1.10,2013-03-21 20:03:00,
2013-03-21 16:18:00,35.1,11.0,29.79,SW,227,8.0,24.0,37,0.00,,,0.00,weatherlink.com 1.10,2013-03-21 20:18:00,
2013-03-21 16:33:00,34.2,10.0,29.80,West,266,14.0,22.0,36,0.00,,,0.00,weatherlink.com 1.10,2013-03-21 20:33:00,
2013-03-21 16:48:00,33.3,9.0,29.80,West,274,11.0,24.0,37,0.00,,,0.00,weatherlink.com 1.10,2013-03-21 20:48:00,
2013-03-21 17:03:00,33.7,10.0,29.81,WSW,255,14.0,23.0,38,0.00,,,0.00,weatherlink.com 1.10,2013-03-21 21:03:00,
2013-03-21 17:18:00,33.2,9.0,29.81,West,265,16.0,24.0,37,0.00,,,0.00,weatherlink.com 1.10,2013-03-21 21:18:00,
2013-03-21 17:33:00,32.6,11.0,29.81,WSW,250,8.0,24.0,40,0.00,,,0.00,weatherlink.com 1.10,2013-03-21 21:33:00,
2013-03-21 17:48:00,33.2,10.0,29.82,West,279,11.0,25.0,38,0.00,,,0.00,weatherlink.com 1.10,2013-03-21 21:48:00,
2013-03-21 18:03:00,33.4,10.0,29.83,West,271,8.0,19.0,37,0.00,,,0.00,weatherlink.com 1.10,2013-03-21 22:03:00,
2013-03-21 18:18:00,33.0,10.0,29.83,NW,305,7.0,17.0,38,0.00,,,0.00,weatherlink.com 1.10,2013-03-21 22:18:00,
2013-03-21 18:33:00,32.9,10.0,29.84,WNW,301,7.0,15.0,39,0.00,,,0.00,weatherlink.com 1.10,2013-03-21 22:33:00,
2013-03-21 18:48:00,32.2,10.0,29.84,WSW,257,10.0,19.0,40,0.00,,,0.00,weatherlink.com 1.10,2013-03-21 22:48:00,
2013-03-21 19:03:00,31.6,9.0,29.85,West,271,9.0,25.0,39,0.00,,,0.00,weatherlink.com 1.10,2013-03-21 23:03:00,
2013-03-21 19:18:00,31.3,10.0,29.86,WNW,282,7.0,22.0,41,0.00,,,0.00,weatherlink.com 1.10,2013-03-21 23:18:00,
2013-03-21 19:33:00,30.9,10.0,29.87,West,277,12.0,23.0,41,0.00,,,0.00,weatherlink.com 1.10,2013-03-21 23:33:00,
2013-03-21 19:48:00,30.6,10.0,29.87,West,275,0.0,13.0,42,0.00,,,0.00,weatherlink.com 1.10,2013-03-21 23:48:00,
2013-03-21 20:03:00,30.4,10.0,29.87,SW,227,8.0,14.0,42,0.00,,,0.00,weatherlink.com 1.10,2013-03-22 00:03:00,
2013-03-21 20:18:00,30.2,10.0,29.88,SSW,213,7.0,14.0,43,0.00,,,0.00,weatherlink.com 1.10,2013-03-22 00:18:00,
2013-03-21 20:33:00,29.8,10.0,29.88,West,271,8.0,10.0,44,0.00,,,0.00,weatherlink.com 1.10,2013-03-22 00:33:00,
2013-03-21 20:48:00,29.7,10.0,29.90,SW,235,7.0,11.0,43,0.00,,,0.00,weatherlink.com 1.10,2013-03-22 00:48:00,
2013-03-21 21:03:00,29.8,10.0,29.90,West,273,6.0,15.0,43,0.00,,,0.00,weatherlink.com 1.10,2013-03-22 01:03:00,
2013-03-21 21:18:00,29.3,10.0,29.90,WSW,256,7.0,10.0,45,0.00,,,0.00,weatherlink.com 1.10,2013-03-22 01:18:00,
2013-03-21 21:33:00,29.5,10.0,29.91,West,277,5.0,13.0,44,0.00,,,0.00,weatherlink.com 1.10,2013-03-22 01:33:00,
2013-03-21 21:48:00,28.9,10.0,29.92,West,267,8.0,11.0,45,0.00,,,0.00,weatherlink.com 1.10,2013-03-22 01:48:00,
2013-03-21 22:03:00,29.1,9.0,29.92,West,269,3.0,10.0,43,0.00,,,0.00,weatherlink.com 1.10,2013-03-22 02:03:00,
2013-03-21 22:18:00,28.5,10.0,29.92,West,272,0.0,3.0,45,0.00,,,0.00,weatherlink.com 1.10,2013-03-22 02:18:00,
2013-03-21 22:33:00,28.5,10.0,29.92,WNW,283,2.0,6.0,47,0.00,,,0.00,weatherlink.com 1.10,2013-03-22 02:33:00,
2013-03-21 22:48:00,27.5,11.0,29.92,West,265,3.0,7.0,50,0.00,,,0.00,weatherlink.com 1.10,2013-03-22 02:48:00,
2013-03-21 23:03:00,29.2,10.0,29.92,West,265,12.0,19.0,44,0.00,,,0.00,weatherlink.com 1.10,2013-03-22 03:03:00,
2013-03-21 23:18:00,29.3,10.0,29.91,West,279,14.0,21.0,44,0.00,,,0.00,weatherlink.com 1.10,2013-03-22 03:18:00,
2013-03-21 23:34:00,29.3,10.0,29.92,West,281,14.0,19.0,45,0.00,,,0.00,weatherlink.com 1.10,2013-03-22 03:34:00,
2013-03-21 23:48:00,28.5,10.0,29.92,WSW,246,8.0,13.0,47,0.00,,,0.00,weatherlink.com 1.10,2013-03-22 03:48:00,